Aérodrome :
LOGIN :

S'inscrire | Disclaimer

   EN    FR    IT 

 










Légende :    VFR   VFR Marginal   IFR   IFR Intensif   IFR Très Intensif
Visi : 
Plafond : 
>= 8 km
>= 3000ft
5 à 8 km
1000 à 3000 ft
1500m à 5 km
500 à 1000 ft
800 à 1500m
200 à 500 ft
< 800m
< 200 ft
Symboles :   Orages  Brouillard  Fortes neiges  Fortes précipitations  Vent > 20 kt
SIGMETs :   Divers  Orages  Givrage  Turbulence  Onde Orograph.  Cendres Volcan.







- Altitude de l'aérodrome : 796 ft
- Code IATA : SYT
- Voir les cartes d'approche


LFLN - Saint-Yan

DERNIER METAR :
  • 162330Z AUTO 21001KT CAVOK 19/16 Q1021

METARs EXPIRÉS :
  • 162300Z AUTO 15002KT 9999 FEW048 19/16 Q1021
  • 162230Z AUTO 00000KT CAVOK 20/16 Q1021
  • 162200Z AUTO 27002KT CAVOK 20/16 Q1021 NOSIG
  • 162130Z AUTO 00000KT CAVOK 21/17 Q1021 NOSIG
  • 162100Z AUTO 28003KT 9999 BKN049 BKN058 BKN078 23/17 Q1021 TEMPO FEW040TCU
  • 162030Z AUTO 29003KT 9999 BKN045 BKN054 OVC082 23/17 Q1021 TEMPO FEW040TCU

TAF AMD TAF LFLN
Valide du 16 à 18h jusqu'au 17 à 03h UTC


161859Z 1618/1703 30005KT 9999 BKN050
PROB40
TEMPO 1618/1622 FEW040TCU
Pas de NOTAMs connus pour ce terrain.



MET'MAP, la Météo Aéronautique d'un coup d'oeil ! - Copyright ORBIFLY Décembre 2007 - Disclaimer

ORBIFLY MET'MAP TEAM :

Programmation & Développement : Alexandra Zaïnal
Conception & Développement : Baudouin d'Aumeries
Co-Programmation & Développement : Marc-Olivier Méhu
Soutien technique & logistique : Manuel Goepfert

Contact : metmap@orbifly.com




SOURCES & CREDITS :

   NOAA